Time;durP1;ratioP1;P1;durP2;ratioP2;P2;SDS_P1;SDS_P2;PMS_P1;PMS_P2;Temp;Humidity;BMP_temperature;BMP_pressure;BME280_temperature;BME280_humidity;BME280_pressure;Samples;Min_cycle;Max_cycle;Signal;HPM_P1;HPM_P2
2022/07/17 00:00:01;;;;;;;3.42;1.05;;;8.50;99.90;;;;;;5069530;28;20045;-47
2022/07/17 00:02:26;;;;;;;5.07;1.38;;;8.00;99.90;;;;;;5069787;28;20063;-48
2022/07/17 00:04:52;;;;;;;7.15;1.90;;;8.80;99.90;;;;;;5070051;28;20542;-48
2022/07/17 00:07:18;;;;;;;6.00;1.70;;;8.80;99.90;;;;;;5069698;28;20616;-47
2022/07/17 00:09:44;;;;;;;4.47;1.67;;;8.00;99.90;;;;;;5069543;28;20045;-49
2022/07/17 00:12:09;;;;;;;3.17;1.60;;;8.10;99.90;;;;;;5069607;28;20040;-46
2022/07/17 00:14:35;;;;;;;7.38;1.73;;;8.00;99.90;;;;;;5069350;28;20581;-47
2022/07/17 00:17:02;;;;;;;7.60;1.77;;;7.90;99.90;;;;;;5068826;28;20139;-48
2022/07/17 00:19:28;;;;;;;4.75;2.08;;;8.10;99.90;;;;;;5067764;28;20394;-47
2022/07/17 00:21:54;;;;;;;8.23;1.98;;;8.00;99.90;;;;;;5069293;28;20040;-47
2022/07/17 00:24:20;;;;;;;4.32;1.60;;;8.00;99.90;;;;;;5068109;28;20509;-47
2022/07/17 00:26:47;;;;;;;4.15;1.50;;;8.80;99.90;;;;;;5069089;28;20121;-47
2022/07/17 00:29:13;;;;;;;5.07;1.88;;;7.70;99.90;;;;;;5069064;28;20055;-47
2022/07/17 00:31:38;;;;;;;3.72;1.20;;;8.10;99.90;;;;;;5068198;28;20045;-47
2022/07/17 00:34:04;;;;;;;3.95;1.20;;;7.80;99.90;;;;;;5068840;28;20047;-48
2022/07/17 00:36:30;;;;;;;6.05;1.20;;;7.80;99.90;;;;;;5067986;28;20496;-47
2022/07/17 00:38:55;;;;;;;3.05;1.10;;;7.80;99.90;;;;;;5068391;28;20045;-51
2022/07/17 00:41:21;;;;;;;3.30;1.30;;;7.90;99.90;;;;;;5068370;28;20097;-49
2022/07/17 00:43:47;;;;;;;4.88;1.08;;;7.90;99.90;;;;;;5068028;28;20052;-47
2022/07/17 00:46:13;;;;;;;4.95;1.33;;;8.10;99.90;;;;;;5068150;28;20047;-47
2022/07/17 00:48:38;;;;;;;4.50;1.50;;;8.50;99.90;;;;;;5067296;28;20555;-47
2022/07/17 00:51:04;;;;;;;2.92;1.40;;;8.00;99.90;;;;;;5067213;28;20051;-47
2022/07/17 00:53:34;;;;;;;4.65;0.95;;;7.80;99.90;;;;;;5067629;28;20119;-50
2022/07/17 00:56:03;;;;;;;4.30;1.35;;;7.90;99.90;;;;;;5067639;28;20072;-48
2022/07/17 00:58:29;;;;;;;6.57;1.30;;;7.70;99.90;;;;;;5067149;28;20461;-47
2022/07/17 01:00:55;;;;;;;2.97;0.98;;;7.90;99.90;;;;;;5067417;28;20052;-47
2022/07/17 01:03:23;;;;;;;2.53;1.15;;;8.20;99.90;;;;;;5067966;28;20045;-48
2022/07/17 01:05:49;;;;;;;5.88;0.90;;;8.30;99.90;;;;;;5069059;28;20386;-47
2022/07/17 01:08:14;;;;;;;5.53;1.13;;;7.70;99.90;;;;;;5065947;28;20044;-49
2022/07/17 01:10:41;;;;;;;4.07;1.58;;;8.20;99.90;;;;;;5066559;28;20043;-47
2022/07/17 01:13:07;;;;;;;3.42;1.20;;;7.70;99.90;;;;;;5065602;28;20394;-49
2022/07/17 01:15:36;;;;;;;2.53;1.20;;;8.40;99.90;;;;;;5066940;28;20553;-47
2022/07/17 01:18:10;;;;;;;2.33;1.00;;;8.50;99.90;;;;;;5067373;28;20040;-47
2022/07/17 01:20:39;;;;;;;4.43;1.10;;;7.90;99.90;;;;;;5067166;28;20050;-47
2022/07/17 01:23:05;;;;;;;1.70;0.85;;;7.40;99.90;;;;;;5067649;28;20418;-51
2022/07/17 01:25:31;;;;;;;1.58;1.00;;;7.10;99.90;;;;;;5067345;28;20127;-46
2022/07/17 01:27:57;;;;;;;3.95;1.35;;;7.40;99.90;;;;;;5067545;28;20062;-47
2022/07/17 01:30:23;;;;;;;7.32;1.80;;;7.20;99.90;;;;;;5066889;28;20490;-51
2022/07/17 01:32:49;;;;;;;3.50;1.20;;;7.20;99.90;;;;;;5065050;28;20397;-47
2022/07/17 01:35:15;;;;;;;5.13;1.67;;;7.50;99.90;;;;;;5067226;28;20394;-51
2022/07/17 01:37:42;;;;;;;5.88;1.77;;;8.20;99.90;;;;;;5066627;28;20072;-46
2022/07/17 01:40:12;;;;;;;3.88;1.35;;;7.90;99.90;;;;;;5066574;28;20757;-52
2022/07/17 01:42:39;;;;;;;4.20;1.80;;;7.30;99.90;;;;;;5066953;28;20040;-51
2022/07/17 01:45:06;;;;;;;3.38;2.00;;;7.10;99.90;;;;;;5064925;28;20082;-47
2022/07/17 01:47:32;;;;;;;2.63;1.30;;;7.30;99.90;;;;;;5066341;28;20078;-48
2022/07/17 01:49:58;;;;;;;5.38;1.25;;;8.00;99.90;;;;;;5066706;28;20041;-47
2022/07/17 01:52:25;;;;;;;3.63;1.00;;;7.20;99.90;;;;;;5066823;28;20063;-47
2022/07/17 01:54:51;;;;;;;4.43;1.23;;;7.30;99.90;;;;;;5066552;28;20043;-48
2022/07/17 01:57:17;;;;;;;2.38;1.10;;;7.20;99.90;;;;;;5066651;28;20048;-47
2022/07/17 01:59:42;;;;;;;3.10;0.93;;;7.00;99.90;;;;;;5066125;28;20433;-46
2022/07/17 02:02:09;;;;;;;2.72;1.02;;;7.10;99.90;;;;;;5066491;28;20559;-47
2022/07/17 02:04:37;;;;;;;2.65;1.40;;;7.20;99.90;;;;;;5065784;28;20043;-49
2022/07/17 02:07:04;;;;;;;1.85;0.70;;;7.10;99.90;;;;;;5064006;28;20490;-47
2022/07/17 02:09:30;;;;;;;2.63;0.77;;;7.10;99.90;;;;;;5066310;28;20110;-50
2022/07/17 02:11:56;;;;;;;2.33;0.43;;;7.00;99.90;;;;;;5065989;28;20044;-47
2022/07/17 02:14:22;;;;;;;4.97;1.05;;;7.20;99.90;;;;;;5064306;28;20033;-47
2022/07/17 02:16:47;;;;;;;5.18;1.08;;;7.10;99.90;;;;;;5066289;28;20646;-46
2022/07/17 02:19:13;;;;;;;3.28;1.05;;;7.10;99.90;;;;;;5066191;28;20119;-47
2022/07/17 02:21:39;;;;;;;2.20;1.02;;;7.20;99.90;;;;;;5065456;28;20041;-46
2022/07/17 02:24:05;;;;;;;3.65;0.90;;;7.30;99.90;;;;;;5065479;28;20061;-46
2022/07/17 02:26:31;;;;;;;1.63;0.70;;;7.10;99.90;;;;;;5065499;28;20033;-47
2022/07/17 02:28:57;;;;;;;4.43;1.00;;;7.20;99.90;;;;;;5066065;28;20123;-46
2022/07/17 02:31:23;;;;;;;2.65;1.38;;;7.00;99.90;;;;;;5066699;28;20105;-47
2022/07/17 02:33:49;;;;;;;4.55;1.40;;;7.00;99.90;;;;;;5065913;28;20137;-46
2022/07/17 02:36:14;;;;;;;3.00;1.15;;;7.00;99.90;;;;;;5065954;28;20067;-47
2022/07/17 02:38:40;;;;;;;4.40;1.20;;;7.10;99.90;;;;;;5065760;28;20045;-46
2022/07/17 02:41:06;;;;;;;3.38;1.23;;;7.00;99.90;;;;;;5065710;28;20041;-48
2022/07/17 02:43:32;;;;;;;4.40;1.88;;;7.00;99.90;;;;;;5065596;28;20040;-47
2022/07/17 02:45:58;;;;;;;5.75;1.30;;;7.10;99.90;;;;;;5066130;28;20496;-46
2022/07/17 02:48:23;;;;;;;5.80;1.65;;;7.10;99.90;;;;;;5066511;28;20036;-47
2022/07/17 02:50:49;;;;;;;7.97;2.22;;;7.00;99.90;;;;;;5065751;28;20036;-46
2022/07/17 02:53:15;;;;;;;7.43;2.40;;;7.10;99.90;;;;;;5065419;28;20499;-48
2022/07/17 02:55:40;;;;;;;6.90;1.90;;;7.20;99.90;;;;;;5065546;28;20085;-49
2022/07/17 02:58:06;;;;;;;5.40;1.80;;;7.10;99.90;;;;;;5065305;28;20139;-46
2022/07/17 03:00:32;;;;;;;4.30;1.75;;;7.00;99.90;;;;;;5065237;28;20496;-46
2022/07/17 03:02:57;;;;;;;3.88;2.83;;;7.10;99.90;;;;;;5064933;28;20448;-46
2022/07/17 03:05:23;;;;;;;4.15;2.00;;;7.70;99.90;;;;;;5065267;28;20041;-47
2022/07/17 03:07:49;;;;;;;9.93;2.17;;;7.00;99.90;;;;;;5065237;28;20115;-48
2022/07/17 03:10:15;;;;;;;9.32;2.78;;;7.10;99.90;;;;;;5064860;28;20529;-47
2022/07/17 03:12:42;;;;;;;4.10;1.85;;;7.10;99.90;;;;;;5065213;28;20036;-47
2022/07/17 03:15:08;;;;;;;5.80;1.88;;;7.30;99.90;;;;;;5065285;28;20052;-46
2022/07/17 03:17:34;;;;;;;7.70;2.10;;;7.10;99.90;;;;;;5066151;28;20040;-47
2022/07/17 03:20:00;;;;;;;7.88;2.05;;;7.10;99.90;;;;;;5065238;28;20049;-47
2022/07/17 03:22:26;;;;;;;3.63;1.92;;;7.10;99.90;;;;;;5065905;28;20143;-47
2022/07/17 03:24:52;;;;;;;2.47;1.25;;;7.20;99.90;;;;;;5065612;28;20044;-46
2022/07/17 03:27:18;;;;;;;13.20;2.38;;;7.70;99.90;;;;;;5065609;28;20043;-48
2022/07/17 03:29:44;;;;;;;4.78;1.70;;;7.10;99.90;;;;;;5065126;28;20045;-47
2022/07/17 03:32:10;;;;;;;9.05;2.10;;;7.00;99.90;;;;;;5066286;28;20521;-49
2022/07/17 03:34:37;;;;;;;4.78;1.90;;;7.00;99.90;;;;;;5069926;28;20048;-46
2022/07/17 03:37:03;;;;;;;8.27;2.45;;;7.90;99.90;;;;;;5069455;28;20063;-47
2022/07/17 03:39:29;;;;;;;8.93;2.75;;;7.20;99.90;;;;;;5069574;28;20086;-47
2022/07/17 03:41:55;;;;;;;12.18;2.30;;;7.60;99.90;;;;;;5068841;28;20490;-50
2022/07/17 03:44:21;;;;;;;8.07;2.78;;;6.90;99.90;;;;;;5067637;28;20097;-47
2022/07/17 03:46:46;;;;;;;4.80;2.13;;;7.10;99.90;;;;;;5069309;28;20403;-47
2022/07/17 03:49:12;;;;;;;6.60;2.03;;;7.00;99.90;;;;;;5068702;28;20048;-48
2022/07/17 03:51:38;;;;;;;10.68;2.83;;;7.20;99.90;;;;;;5068583;28;20543;-46
2022/07/17 03:54:04;;;;;;;4.10;1.90;;;6.90;99.90;;;;;;5068518;28;20411;-46
2022/07/17 03:56:29;;;;;;;5.82;1.80;;;7.80;99.90;;;;;;5068728;28;20048;-50
2022/07/17 03:58:55;;;;;;;5.30;2.03;;;6.90;99.90;;;;;;5068288;28;20052;-47
2022/07/17 04:01:21;;;;;;;5.63;2.05;;;6.90;99.90;;;;;;5068354;28;20083;-48
2022/07/17 04:03:47;;;;;;;4.47;2.25;;;5.70;99.90;;;;;;5068950;28;20083;-47
2022/07/17 04:06:13;;;;;;;7.40;2.72;;;6.90;99.90;;;;;;5068990;28;20079;-47
2022/07/17 04:08:38;;;;;;;4.70;2.03;;;7.20;99.90;;;;;;5067103;28;20049;-48
2022/07/17 04:11:05;;;;;;;5.93;1.83;;;6.90;99.90;;;;;;5068121;28;20044;-47
2022/07/17 04:13:30;;;;;;;4.82;1.60;;;7.00;99.90;;;;;;5068509;28;20396;-47
2022/07/17 04:15:56;;;;;;;3.97;1.45;;;7.90;99.90;;;;;;5067735;28;20051;-47
2022/07/17 04:18:24;;;;;;;1.63;0.70;;;7.60;99.90;;;;;;5068402;28;20463;-46
2022/07/17 04:20:51;;;;;;;2.10;0.80;;;7.50;99.90;;;;;;5067980;28;20040;-46
2022/07/17 04:23:17;;;;;;;1.98;0.80;;;7.40;99.90;;;;;;5068406;28;20119;-46
2022/07/17 04:25:44;;;;;;;3.47;1.40;;;7.70;99.90;;;;;;5068296;28;20045;-49
2022/07/17 04:28:10;;;;;;;5.40;2.00;;;7.80;99.90;;;;;;5068965;28;20044;-47
2022/07/17 04:30:36;;;;;;;7.38;2.28;;;7.80;99.90;;;;;;5067881;28;20057;-46
2022/07/17 04:33:02;;;;;;;8.90;3.03;;;8.90;99.90;;;;;;5068385;28;20043;-47
2022/07/17 04:35:29;;;;;;;8.85;2.63;;;8.00;99.90;;;;;;5068264;28;20093;-48
2022/07/17 04:37:55;;;;;;;8.65;3.13;;;8.10;99.90;;;;;;5068560;28;20055;-47
2022/07/17 04:40:20;;;;;;;6.45;2.92;;;8.30;99.90;;;;;;5068863;28;20040;-47
2022/07/17 04:42:46;;;;;;;6.75;2.78;;;8.40;99.90;;;;;;5066718;28;20046;-50
2022/07/17 04:45:13;;;;;;;4.38;2.38;;;8.60;99.90;;;;;;5068451;28;20456;-47
2022/07/17 04:47:40;;;;;;;6.72;2.80;;;9.30;99.90;;;;;;5068671;28;20047;-48
2022/07/17 04:50:06;;;;;;;3.85;2.58;;;8.70;99.90;;;;;;5068255;28;20052;-47
2022/07/17 04:52:32;;;;;;;6.30;2.70;;;8.80;99.90;;;;;;5068053;28;20435;-48
2022/07/17 04:54:58;;;;;;;4.05;2.42;;;9.50;99.90;;;;;;5067609;28;20481;-48
2022/07/17 04:57:23;;;;;;;5.25;2.20;;;9.80;99.90;;;;;;5066341;28;20144;-49
2022/07/17 04:59:49;;;;;;;8.43;2.72;;;9.00;99.90;;;;;;5067140;28;20120;-47
2022/07/17 05:02:14;;;;;;;7.15;2.55;;;9.80;99.90;;;;;;5067804;28;20044;-47
2022/07/17 05:04:40;;;;;;;4.30;2.47;;;9.20;99.90;;;;;;5067394;28;20051;-47
2022/07/17 05:07:06;;;;;;;12.45;3.22;;;9.50;99.90;;;;;;5067580;28;20296;-49
2022/07/17 05:09:32;;;;;;;7.25;2.80;;;10.40;99.90;;;;;;5066999;28;20440;-49
2022/07/17 05:11:58;;;;;;;6.05;2.35;;;9.80;99.90;;;;;;5066734;28;20539;-46
2022/07/17 05:14:23;;;;;;;6.53;2.47;;;9.90;99.90;;;;;;5067091;28;20028;-50
2022/07/17 05:16:49;;;;;;;7.63;2.53;;;10.00;99.90;;;;;;5066878;28;20486;-47
2022/07/17 05:19:15;;;;;;;7.70;2.60;;;10.70;99.90;;;;;;5066814;28;20045;-48
2022/07/17 05:21:41;;;;;;;4.97;2.45;;;10.30;99.90;;;;;;5067003;28;20044;-47
2022/07/17 05:24:06;;;;;;;7.97;2.00;;;10.60;99.90;;;;;;5067077;28;20382;-47
2022/07/17 05:26:32;;;;;;;5.70;1.80;;;10.50;99.90;;;;;;5067669;28;20044;-49
2022/07/17 05:28:58;;;;;;;7.07;2.00;;;10.50;99.90;;;;;;5066701;28;20043;-47
2022/07/17 05:31:23;;;;;;;3.25;1.50;;;10.70;99.90;;;;;;5067178;28;20052;-47
2022/07/17 05:33:49;;;;;;;4.25;2.00;;;10.70;99.90;;;;;;5067905;28;20083;-47
2022/07/17 05:36:14;;;;;;;7.68;2.25;;;11.30;99.90;;;;;;5066617;28;20037;-47
2022/07/17 05:38:40;;;;;;;7.47;2.25;;;11.10;99.90;;;;;;5067636;28;20453;-47
2022/07/17 05:41:06;;;;;;;2.88;1.40;;;11.30;99.90;;;;;;5066018;28;20044;-47
2022/07/17 05:43:31;;;;;;;6.22;1.42;;;11.30;99.90;;;;;;5065952;28;20040;-47
2022/07/17 05:45:58;;;;;;;4.78;1.48;;;11.40;99.90;;;;;;5067591;28;20048;-48
2022/07/17 05:48:24;;;;;;;3.63;1.38;;;12.20;99.90;;;;;;5067849;28;20041;-47
2022/07/17 05:50:50;;;;;;;6.05;1.98;;;11.70;99.90;;;;;;5068166;28;20048;-48
2022/07/17 05:53:16;;;;;;;4.78;1.77;;;12.00;99.90;;;;;;5068078;28;20040;-47
2022/07/17 05:55:42;;;;;;;3.30;1.60;;;12.00;99.90;;;;;;5066253;28;20450;-47
2022/07/17 05:58:08;;;;;;;3.53;1.70;;;12.20;99.90;;;;;;5066697;28;20040;-49
2022/07/17 06:00:34;;;;;;;3.38;1.23;;;12.30;99.90;;;;;;5066666;28;20044;-48
2022/07/17 06:03:01;;;;;;;3.00;1.30;;;12.50;99.90;;;;;;5067073;28;20106;-47
2022/07/17 06:05:27;;;;;;;5.05;1.60;;;12.60;99.90;;;;;;5066629;28;20083;-47
2022/07/17 06:07:55;;;;;;;3.40;1.30;;;13.60;99.90;;;;;;5066720;28;20056;-48
2022/07/17 06:10:21;;;;;;;9.65;1.67;;;13.00;99.90;;;;;;5066271;28;20091;-47
2022/07/17 06:12:46;;;;;;;3.45;1.27;;;13.20;99.90;;;;;;5066610;28;20048;-47
2022/07/17 06:15:13;;;;;;;6.10;1.15;;;13.90;99.90;;;;;;5065339;28;20139;-48
2022/07/17 06:17:39;;;;;;;6.75;1.00;;;14.70;99.90;;;;;;5066583;28;20075;-48
2022/07/17 06:20:05;;;;;;;3.90;0.75;;;15.20;99.90;;;;;;5066141;28;20076;-48
2022/07/17 06:22:31;;;;;;;5.20;0.80;;;16.00;99.90;;;;;;5066248;28;20557;-48
2022/07/17 06:24:57;;;;;;;4.20;0.63;;;17.10;99.90;;;;;;5066617;28;20135;-51
2022/07/17 06:27:23;;;;;;;3.83;0.70;;;17.80;99.90;;;;;;5066701;28;20123;-51
2022/07/17 06:29:49;;;;;;;4.65;0.50;;;19.70;99.90;;;;;;5067420;28;20081;-49
2022/07/17 06:32:15;;;;;;;2.03;0.20;;;21.90;99.90;;;;;;5066849;28;20134;-52
2022/07/17 06:34:40;;;;;;;4.30;0.93;;;23.60;96.10;;;;;;5067169;28;20064;-51
2022/07/17 06:37:07;;;;;;;2.28;0.38;;;24.90;91.30;;;;;;5066963;28;20872;-52
2022/07/17 06:39:32;;;;;;;1.50;0.40;;;26.10;84.70;;;;;;5066242;28;20363;-53
2022/07/17 06:41:58;;;;;;;2.83;0.22;;;27.20;79.90;;;;;;5065779;28;20387;-52
2022/07/17 06:44:24;;;;;;;2.90;0.40;;;28.20;76.10;;;;;;5066618;28;20091;-53
2022/07/17 06:46:50;;;;;;;3.08;0.28;;;29.20;72.40;;;;;;5066768;28;20044;-52
2022/07/17 06:49:15;;;;;;;2.15;0.43;;;30.00;69.30;;;;;;5066452;28;20052;-53
2022/07/17 06:51:41;;;;;;;5.75;0.40;;;30.80;66.30;;;;;;5066190;28;20040;-53
2022/07/17 06:54:07;;;;;;;4.65;0.40;;;31.70;63.70;;;;;;5066867;28;20053;-53
2022/07/17 06:56:33;;;;;;;6.07;0.70;;;31.40;61.30;;;;;;5066499;28;20062;-53
2022/07/17 06:58:59;;;;;;;2.75;0.30;;;30.50;60.40;;;;;;5066516;28;20059;-54
2022/07/17 07:01:24;;;;;;;3.45;0.30;;;30.40;60.20;;;;;;5066815;28;20049;-53
2022/07/17 07:03:50;;;;;;;3.17;0.20;;;29.90;60.60;;;;;;5066756;28;20072;-54
2022/07/17 07:06:16;;;;;;;3.88;0.25;;;31.40;59.40;;;;;;5066041;28;20052;-54
2022/07/17 07:08:41;;;;;;;1.58;0.20;;;32.80;56.60;;;;;;5066485;28;20044;-54
2022/07/17 07:11:07;;;;;;;1.92;0.30;;;31.90;56.90;;;;;;5064049;28;20049;-56
2022/07/17 07:13:33;;;;;;;3.45;0.30;;;30.60;57.20;;;;;;5065666;28;20106;-55
2022/07/17 07:15:59;;;;;;;3.22;0.30;;;29.20;57.60;;;;;;5066189;28;20049;-56
2022/07/17 07:18:25;;;;;;;2.90;0.20;;;27.90;58.90;;;;;;5065291;28;20082;-55
2022/07/17 07:20:51;;;;;;;2.22;0.22;;;26.80;63.30;;;;;;5065848;28;20133;-55
2022/07/17 07:23:16;;;;;;;2.28;0.30;;;25.40;61.00;;;;;;5065658;28;20516;-54
2022/07/17 07:25:44;;;;;;;4.95;0.70;;;25.00;63.40;;;;;;5066003;28;20037;-53
2022/07/17 07:28:10;;;;;;;2.40;0.20;;;24.40;64.90;;;;;;5065698;28;20048;-54
2022/07/17 07:30:36;;;;;;;3.50;0.22;;;23.80;65.40;;;;;;5065448;28;20260;-54
2022/07/17 07:33:01;;;;;;;3.65;0.47;;;23.30;66.90;;;;;;5066300;28;20379;-54
2022/07/17 07:35:27;;;;;;;2.72;0.20;;;22.90;67.40;;;;;;5066816;28;20051;-56
2022/07/17 07:37:53;;;;;;;3.70;0.30;;;22.60;68.60;;;;;;5066420;28;20086;-56
2022/07/17 07:40:18;;;;;;;3.25;0.20;;;22.30;70.00;;;;;;5065415;28;20048;-55
2022/07/17 07:42:44;;;;;;;3.60;0.20;;;22.10;71.40;;;;;;5066245;28;20494;-56
2022/07/17 07:45:10;;;;;;;2.75;0.20;;;22.00;71.90;;;;;;5066211;28;20029;-54
2022/07/17 07:47:47;;;;;;;3.47;0.50;;;21.90;72.30;;;;;;5064787;28;20102;-56
2022/07/17 07:50:14;;;;;;;2.58;0.40;;;21.70;73.00;;;;;;5065882;28;20044;-54
2022/07/17 07:52:41;;;;;;;3.15;0.30;;;21.60;74.00;;;;;;5066544;28;20076;-55
2022/07/17 07:55:08;;;;;;;3.22;0.20;;;21.60;74.50;;;;;;5066368;28;20059;-54
2022/07/17 07:57:34;;;;;;;3.15;0.32;;;21.60;74.40;;;;;;5065962;28;20037;-55
2022/07/17 07:59:59;;;;;;;2.58;0.30;;;21.70;73.90;;;;;;5066040;28;20120;-55
2022/07/17 08:02:25;;;;;;;3.55;0.30;;;21.80;73.70;;;;;;5065418;28;20553;-54
2022/07/17 08:04:51;;;;;;;2.33;0.20;;;21.90;72.70;;;;;;5066017;28;20117;-54
2022/07/17 08:07:17;;;;;;;2.40;0.30;;;22.20;72.60;;;;;;5065562;28;20433;-55
2022/07/17 08:09:42;;;;;;;6.20;0.47;;;22.80;72.30;;;;;;5065305;28;20444;-55
2022/07/17 08:12:08;;;;;;;4.13;0.50;;;23.70;71.30;;;;;;5065194;28;20155;-55
2022/07/17 08:14:34;;;;;;;6.10;1.08;;;24.00;70.00;;;;;;5065699;28;20055;-56
2022/07/17 08:16:59;;;;;;;2.42;0.30;;;24.10;67.20;;;;;;5066077;28;20056;-54
2022/07/17 08:19:25;;;;;;;3.33;0.40;;;24.20;67.10;;;;;;5068661;28;20075;-55
2022/07/17 08:21:50;;;;;;;2.72;0.38;;;24.30;66.10;;;;;;5066669;28;20398;-56
2022/07/17 08:24:16;;;;;;;5.20;0.50;;;24.50;65.40;;;;;;5067608;28;20037;-56
2022/07/17 08:26:43;;;;;;;4.88;0.40;;;24.80;65.20;;;;;;5069279;28;20043;-56
2022/07/17 08:29:09;;;;;;;3.55;0.40;;;25.40;64.90;;;;;;5069236;28;20051;-55
2022/07/17 08:31:35;;;;;;;2.15;0.40;;;26.20;63.00;;;;;;5069064;28;20538;-56
2022/07/17 08:34:00;;;;;;;2.55;0.30;;;26.60;60.20;;;;;;5069294;28;20041;-56
2022/07/17 08:36:26;;;;;;;3.53;0.40;;;27.00;59.90;;;;;;5068687;28;20486;-56
2022/07/17 08:38:52;;;;;;;4.05;0.32;;;27.50;59.60;;;;;;5069354;28;20428;-56
2022/07/17 08:41:21;;;;;;;6.15;0.50;;;27.80;58.90;;;;;;5068646;28;20494;-56
2022/07/17 08:43:48;;;;;;;3.17;0.43;;;28.10;59.40;;;;;;5069339;28;20040;-57
2022/07/17 08:46:16;;;;;;;6.55;0.40;;;29.50;59.10;;;;;;5069385;28;20060;-56
2022/07/17 08:48:44;;;;;;;5.75;0.30;;;30.70;56.30;;;;;;5069318;28;20167;-56
2022/07/17 08:51:11;;;;;;;5.00;0.50;;;32.30;55.20;;;;;;5067620;28;20090;-57
2022/07/17 08:53:37;;;;;;;4.63;0.30;;;33.80;52.80;;;;;;5068783;28;20041;-57
2022/07/17 08:56:03;;;;;;;4.35;0.30;;;35.10;51.70;;;;;;5069275;28;20037;-57
2022/07/17 08:58:29;;;;;;;2.28;0.30;;;36.10;49.10;;;;;;5069118;28;20041;-57
2022/07/17 09:00:55;;;;;;;3.70;0.38;;;37.20;47.80;;;;;;5068814;28;20603;-57
2022/07/17 09:03:23;;;;;;;2.05;0.20;;;37.80;45.60;;;;;;5068465;28;20048;-57
2022/07/17 09:05:49;;;;;;;3.70;0.20;;;38.40;45.20;;;;;;5068647;28;20058;-57
2022/07/17 09:08:24;;;;;;;3.80;0.30;;;38.90;44.00;;;;;;5068283;28;20040;-57
2022/07/17 09:10:52;;;;;;;2.05;0.30;;;39.70;42.70;;;;;;5068269;28;20048;-57
2022/07/17 09:13:28;;;;;;;1.25;0.20;;;40.00;40.30;;;;;;5068546;28;20068;-60
2022/07/17 09:16:05;;;;;;;2.97;0.20;;;40.20;40.10;;;;;;5068490;28;20049;-57
2022/07/17 09:18:31;;;;;;;2.55;0.40;;;40.60;40.60;;;;;;5068281;28;20032;-57
2022/07/17 09:20:58;;;;;;;1.60;0.30;;;40.90;40.60;;;;;;5068928;28;21039;-57
2022/07/17 09:23:25;;;;;;;3.40;0.32;;;41.20;41.00;;;;;;5066444;28;20407;-57
2022/07/17 09:25:56;;;;;;;2.58;0.25;;;41.30;39.90;;;;;;5068019;28;20048;-57
2022/07/17 09:28:22;;;;;;;3.85;0.30;;;41.60;37.50;;;;;;5067798;28;20421;-57
2022/07/17 09:30:51;;;;;;;3.53;0.43;;;41.70;37.40;;;;;;5068222;28;20076;-57
2022/07/17 09:33:22;;;;;;;1.70;0.30;;;42.00;38.20;;;;;;5068397;28;20125;-57
2022/07/17 09:36:06;;;;;;;4.15;0.50;;;42.10;37.50;;;;;;5068472;28;20040;-57
2022/07/17 09:38:37;;;;;;;3.10;0.28;;;42.20;36.70;;;;;;5067574;28;20513;-57
2022/07/17 09:41:17;;;;;;;1.80;0.32;;;42.30;37.10;;;;;;5066704;28;20052;-57
2022/07/17 09:43:50;;;;;;;3.83;0.40;;;42.60;36.60;;;;;;5067214;28;20044;-57
2022/07/17 09:46:37;;;;;;;2.53;0.28;;;42.50;35.20;;;;;;5067995;28;20355;-57
2022/07/17 09:49:09;;;;;;;1.77;0.20;;;42.50;35.80;;;;;;5067744;28;20040;-57
2022/07/17 09:51:38;;;;;;;3.80;0.50;;;42.20;35.80;;;;;;5067459;28;20115;-57
2022/07/17 09:54:05;;;;;;;2.50;0.30;;;42.00;35.30;;;;;;5067703;28;20044;-57
2022/07/17 09:56:33;;;;;;;1.50;0.20;;;41.80;37.00;;;;;;5067253;28;20037;-57
2022/07/17 09:59:07;;;;;;;2.38;0.30;;;42.00;35.90;;;;;;5067340;28;20411;-57
2022/07/17 10:01:35;;;;;;;1.95;0.30;;;42.00;37.30;;;;;;5065336;28;20048;-56
2022/07/17 10:04:01;;;;;;;3.20;0.40;;;41.90;36.10;;;;;;5067179;28;20044;-56
2022/07/17 10:06:28;;;;;;;2.55;0.40;;;42.10;36.00;;;;;;5067159;28;20052;-56
2022/07/17 10:08:54;;;;;;;2.85;0.40;;;41.90;36.10;;;;;;5066873;28;20048;-57
2022/07/17 10:11:22;;;;;;;2.65;0.30;;;41.90;36.10;;;;;;5067465;28;20051;-57
2022/07/17 10:13:50;;;;;;;2.70;0.30;;;41.90;35.60;;;;;;5066877;28;20040;-57
2022/07/17 10:16:27;;;;;;;4.78;0.30;;;42.20;36.00;;;;;;5067077;28;20056;-56
2022/07/17 10:18:55;;;;;;;3.53;0.45;;;42.20;35.60;;;;;;5067541;28;20440;-57
2022/07/17 10:21:21;;;;;;;2.65;0.30;;;41.90;34.80;;;;;;5065298;28;20080;-57
2022/07/17 10:24:06;;;;;;;1.75;0.30;;;41.90;36.60;;;;;;5066554;28;20120;-57
2022/07/17 10:26:38;;;;;;;1.42;0.20;;;41.90;36.40;;;;;;5066317;28;20589;-57
2022/07/17 10:29:08;;;;;;;1.90;0.20;;;41.80;36.60;;;;;;5067014;28;20516;-57
2022/07/17 10:31:35;;;;;;;;;;;41.70;37.10;;;;;;5067041;28;20045;-57
2022/07/17 10:34:05;;;;;;;1.98;0.32;;;41.70;37.60;;;;;;5066544;28;20377;-57
2022/07/17 10:36:39;;;;;;;1.88;0.20;;;41.50;36.20;;;;;;5066788;28;20083;-56
2022/07/17 10:39:12;;;;;;;2.33;0.40;;;41.60;36.40;;;;;;5066598;28;20037;-56
2022/07/17 10:41:39;;;;;;;3.35;0.47;;;41.50;35.10;;;;;;5065454;28;20146;-56
2022/07/17 10:44:04;;;;;;;2.30;0.20;;;41.60;36.00;;;;;;5066415;28;20363;-56
2022/07/17 10:46:30;;;;;;;1.90;0.20;;;41.60;36.70;;;;;;5066415;28;20053;-56
2022/07/17 10:48:57;;;;;;;1.98;0.30;;;41.50;35.40;;;;;;5066758;28;20056;-56
2022/07/17 10:51:27;;;;;;;3.40;0.40;;;41.30;35.80;;;;;;5066887;28;20398;-56
2022/07/17 10:53:58;;;;;;;1.02;0.20;;;40.70;35.40;;;;;;5067092;28;20048;-55
2022/07/17 10:56:24;;;;;;;5.00;0.52;;;39.60;35.90;;;;;;5065909;28;20451;-55
2022/07/17 10:58:51;;;;;;;1.95;0.20;;;38.20;37.00;;;;;;5066057;28;20037;-56
2022/07/17 11:01:21;;;;;;;2.40;0.30;;;36.40;37.10;;;;;;5064821;28;20074;-55
2022/07/17 11:03:53;;;;;;;2.60;0.30;;;35.10;39.40;;;;;;5065904;28;20490;-56
2022/07/17 11:06:33;;;;;;;1.58;0.38;;;33.90;41.80;;;;;;5066598;28;20497;-56
2022/07/17 11:09:10;;;;;;;1.88;0.30;;;32.80;42.30;;;;;;5066574;28;20044;-55
2022/07/17 11:11:40;;;;;;;3.22;0.40;;;32.00;42.70;;;;;;5066314;28;20489;-55
2022/07/17 11:14:14;;;;;;;3.95;0.75;;;31.20;43.70;;;;;;5064417;28;20379;-55
2022/07/17 11:16:57;;;;;;;2.28;0.30;;;30.40;44.10;;;;;;5065665;28;20495;-55
2022/07/17 11:19:28;;;;;;;1.85;0.28;;;29.80;53.30;;;;;;5066368;28;20123;-55
2022/07/17 11:21:57;;;;;;;3.38;0.30;;;29.20;65.20;;;;;;5065749;28;20573;-55
2022/07/17 11:24:23;;;;;;;1.45;0.30;;;28.60;53.60;;;;;;5066392;28;20106;-54
2022/07/17 11:26:50;;;;;;;1.70;0.40;;;27.90;49.00;;;;;;5066114;28;20394;-55
2022/07/17 11:29:17;;;;;;;3.38;0.68;;;27.70;49.20;;;;;;5065460;28;20047;-55
2022/07/17 11:31:43;;;;;;;1.48;0.30;;;27.50;50.40;;;;;;5065545;28;20086;-56
2022/07/17 11:34:11;;;;;;;4.35;0.30;;;27.20;51.60;;;;;;5066556;28;20120;-54
2022/07/17 11:36:41;;;;;;;3.28;0.30;;;27.10;52.20;;;;;;5066399;28;20098;-54
2022/07/17 11:39:12;;;;;;;2.20;0.30;;;26.90;52.90;;;;;;5066326;28;20040;-53
2022/07/17 11:41:46;;;;;;;3.45;0.43;;;26.40;52.90;;;;;;5065994;28;20084;-54
2022/07/17 11:44:17;;;;;;;3.78;0.30;;;26.20;52.70;;;;;;5066229;28;20080;-54
2022/07/17 11:46:49;;;;;;;1.67;0.40;;;25.80;53.50;;;;;;5065800;28;20048;-54
2022/07/17 11:49:32;;;;;;;2.60;0.50;;;25.40;54.70;;;;;;5064871;28;20155;-54
2022/07/17 11:51:59;;;;;;;4.30;0.63;;;25.00;55.70;;;;;;5065957;28;20049;-54
2022/07/17 11:54:26;;;;;;;4.93;0.38;;;24.60;59.50;;;;;;5068913;28;20036;-55
2022/07/17 11:57:02;;;;;;;6.07;0.65;;;24.50;58.80;;;;;;5070124;28;20037;-54
2022/07/17 11:59:30;;;;;;;5.00;0.40;;;24.50;67.90;;;;;;5069820;28;20057;-54
2022/07/17 12:01:56;;;;;;;3.28;0.45;;;24.50;70.30;;;;;;5070086;28;20083;-54
2022/07/17 12:04:22;;;;;;;3.10;0.60;;;24.20;57.00;;;;;;5070103;28;20044;-55
2022/07/17 12:07:02;;;;;;;1.52;0.40;;;24.10;57.90;;;;;;5070227;28;20166;-54
2022/07/17 12:09:33;;;;;;;1.65;0.30;;;24.00;57.10;;;;;;5069771;28;20052;-54
2022/07/17 12:12:00;;;;;;;3.45;0.38;;;24.00;58.30;;;;;;5069397;28;20044;-54
2022/07/17 12:14:26;;;;;;;5.05;0.75;;;23.90;58.10;;;;;;5068834;28;20075;-53
2022/07/17 12:16:51;;;;;;;3.03;0.40;;;23.90;59.10;;;;;;5068932;28;20083;-54
2022/07/17 12:19:22;;;;;;;1.17;0.30;;;23.80;59.90;;;;;;5069632;28;20072;-54
2022/07/17 12:22:14;;;;;;;1.52;0.47;;;23.80;64.90;;;;;;5069242;28;20405;-56
2022/07/17 12:24:40;;;;;;;2.30;0.43;;;23.30;61.00;;;;;;5065814;28;20094;-55
2022/07/17 12:27:09;;;;;;;4.40;0.55;;;23.50;61.10;;;;;;5069359;28;20457;-56
2022/07/17 12:29:35;;;;;;;1.85;0.32;;;23.10;60.50;;;;;;5068852;28;20532;-55
2022/07/17 12:32:02;;;;;;;4.88;0.60;;;23.20;61.60;;;;;;5068722;28;20083;-55
2022/07/17 12:34:27;;;;;;;3.53;0.65;;;23.30;60.60;;;;;;5069193;28;20036;-56
2022/07/17 12:36:53;;;;;;;1.88;0.70;;;23.20;58.60;;;;;;5067415;28;20033;-55
2022/07/17 12:39:19;;;;;;;3.00;0.50;;;23.10;59.10;;;;;;5069153;28;20125;-56
2022/07/17 12:41:45;;;;;;;2.00;0.40;;;23.20;60.20;;;;;;5068922;28;20551;-56
2022/07/17 12:44:11;;;;;;;4.35;0.50;;;23.20;59.50;;;;;;5069213;28;20087;-56
2022/07/17 12:46:37;;;;;;;4.25;0.57;;;23.20;59.50;;;;;;5069118;28;20409;-54
2022/07/17 12:49:03;;;;;;;2.95;0.63;;;23.30;59.80;;;;;;5068599;28;20045;-55